Time;durP1;ratioP1;P1;durP2;ratioP2;P2;SDS_P1;SDS_P2;PMS_P1;PMS_P2;Temp;Humidity;BMP_temperature;BMP_pressure;BME280_temperature;BME280_humidity;BME280_pressure;Samples;Min_cycle;Max_cycle;Signal;HPM_P1;HPM_P2
2023/04/08 11:08:19;;;;;;;20.83;12.15;;;9.90;63.90;;;;;;5092403;27;20427;-93
2023/04/08 11:10:47;;;;;;;23.55;14.13;;;9.10;63.80;;;;;;5074168;28;20058;-92
2023/04/08 11:13:15;;;;;;;20.77;12.13;;;8.80;65.40;;;;;;5074419;28;20434;-90
2023/04/08 11:15:42;;;;;;;22.58;13.05;;;8.50;64.80;;;;;;5074125;28;20048;-91
2023/04/08 11:18:10;;;;;;;22.00;13.23;;;8.40;66.00;;;;;;5073945;28;20072;-91
2023/04/08 11:20:37;;;;;;;22.33;13.02;;;8.30;66.60;;;;;;5074268;28;20044;-89
2023/04/08 11:23:04;;;;;;;23.50;13.57;;;8.40;66.40;;;;;;5081096;28;20131;-91
2023/04/08 11:25:31;;;;;;;20.13;11.83;;;8.50;66.10;;;;;;5073791;28;20113;-91
2023/04/08 11:27:59;;;;;;;20.98;12.15;;;8.60;66.30;;;;;;5074007;28;20056;-91
2023/04/08 11:30:26;;;;;;;23.00;13.27;;;8.50;66.20;;;;;;5090596;28;20555;-90
2023/04/08 11:32:54;;;;;;;22.70;12.18;;;8.50;65.80;;;;;;5076874;28;20068;-91
2023/04/08 11:35:21;;;;;;;21.58;12.15;;;8.50;66.50;;;;;;5073934;28;20040;-91
2023/04/08 11:37:51;;;;;;;23.03;13.13;;;8.60;65.90;;;;;;5073992;28;20147;-92
2023/04/08 11:40:22;;;;;;;20.27;11.40;;;8.90;66.10;;;;;;5086200;28;20520;-93
2023/04/08 11:42:51;;;;;;;23.50;12.40;;;9.00;68.50;;;;;;5074355;28;20047;-93
2023/04/08 11:45:20;;;;;;;21.60;11.73;;;9.00;66.20;;;;;;5073833;28;20052;-92
2023/04/08 11:47:47;;;;;;;22.08;11.35;;;8.80;65.60;;;;;;5084288;28;20044;-92
2023/04/08 11:50:25;;;;;;;17.97;9.93;;;8.70;66.20;;;;;;5090083;28;20044;-93
2023/04/08 11:52:52;;;;;;;16.02;8.75;;;8.60;64.90;;;;;;5074041;28;20074;-93
2023/04/08 11:55:24;;;;;;;15.70;7.40;;;8.50;63.90;;;;;;5057440;28;20567;-93
2023/04/08 11:57:53;;;;;;;13.52;7.45;;;8.50;63.10;;;;;;5091678;28;20071;-93
2023/04/08 12:00:21;;;;;;;15.57;8.73;;;8.60;62.90;;;;;;5082555;28;20045;-94
2023/04/08 12:02:49;;;;;;;15.33;7.93;;;8.80;63.80;;;;;;5090394;28;20132;-93
2023/04/08 12:05:17;;;;;;;13.15;7.55;;;8.90;62.10;;;;;;5073749;28;20055;-93
2023/04/08 12:07:45;;;;;;;14.38;7.50;;;8.90;60.50;;;;;;5089958;28;20121;-94
2023/04/08 12:10:19;;;;;;;15.02;7.85;;;8.80;61.70;;;;;;5074980;28;20094;-96
2023/04/08 12:12:46;;;;;;;13.90;7.50;;;8.90;61.40;;;;;;5091941;28;20066;-91
2023/04/08 12:15:13;;;;;;;14.97;6.97;;;8.90;61.40;;;;;;5090175;28;20071;-91
2023/04/08 12:17:40;;;;;;;15.65;7.88;;;9.00;62.90;;;;;;5086426;28;20045;-90
2023/04/08 12:20:08;;;;;;;11.70;6.13;;;9.10;61.30;;;;;;5060189;28;20147;-91
2023/04/08 12:22:35;;;;;;;13.10;6.10;;;9.20;60.40;;;;;;5060707;28;20127;-94
2023/04/08 12:25:03;;;;;;;12.50;6.70;;;9.30;59.30;;;;;;5060873;28;20523;-95
2023/04/08 12:27:50;;;;;;;11.83;5.83;;;9.40;59.30;;;;;;5085733;28;20048;-96
2023/04/08 12:30:24;;;;;;;12.90;6.60;;;9.50;58.20;;;;;;5073948;28;20045;-91
2023/04/08 12:32:54;;;;;;;12.35;6.57;;;9.50;58.60;;;;;;5076343;28;20502;-91
2023/04/08 12:35:21;;;;;;;11.48;6.15;;;9.50;58.40;;;;;;5076198;28;20131;-91
2023/04/08 12:37:48;;;;;;;12.73;6.90;;;9.40;58.30;;;;;;5076502;28;20040;-89
2023/04/08 12:40:15;;;;;;;12.43;6.90;;;9.40;59.40;;;;;;5075992;28;20072;-91
2023/04/08 12:42:42;;;;;;;11.40;5.82;;;9.30;58.10;;;;;;5076107;28;20056;-91
2023/04/08 12:45:10;;;;;;;11.65;6.88;;;9.30;57.90;;;;;;5076108;28;20064;-90
2023/04/08 12:47:37;;;;;;;12.70;6.40;;;9.20;58.50;;;;;;5059517;28;20046;-90
2023/04/08 12:50:04;;;;;;;12.70;7.15;;;9.30;58.70;;;;;;5076153;28;20513;-91
2023/04/08 12:52:32;;;;;;;14.47;7.30;;;9.30;59.40;;;;;;5075793;28;20048;-90
2023/04/08 12:54:59;;;;;;;14.50;7.97;;;9.20;60.30;;;;;;5076420;28;20053;-91
2023/04/08 12:57:30;;;;;;;15.52;8.20;;;9.10;61.70;;;;;;5059226;28;20048;-90
2023/04/08 12:59:57;;;;;;;16.38;8.32;;;9.00;62.50;;;;;;5076200;28;20041;-91
2023/04/08 13:02:25;;;;;;;14.73;8.05;;;8.90;62.20;;;;;;5059247;28;20045;-90
2023/04/08 13:04:54;;;;;;;18.60;9.33;;;9.00;63.00;;;;;;5075535;28;20426;-92
2023/04/08 13:07:21;;;;;;;15.93;8.23;;;9.00;62.20;;;;;;5061306;28;20048;-93
2023/04/08 13:09:48;;;;;;;14.48;8.20;;;9.00;64.90;;;;;;5080835;28;20131;-91
2023/04/08 13:12:16;;;;;;;15.95;8.98;;;9.20;62.60;;;;;;5060613;28;20041;-92
2023/04/08 13:14:43;;;;;;;16.65;9.23;;;9.30;65.50;;;;;;5076700;28;20387;-92
2023/04/08 13:17:10;;;;;;;16.50;9.90;;;9.50;63.70;;;;;;5075833;28;20555;-91
2023/04/08 13:19:37;;;;;;;17.50;8.65;;;9.50;61.70;;;;;;5076930;28;20051;-93
2023/04/08 13:22:04;;;;;;;15.25;9.02;;;9.60;60.30;;;;;;5059231;28;20048;-91
2023/04/08 13:24:32;;;;;;;17.38;8.15;;;9.50;61.30;;;;;;5075167;28;20079;-90
2023/04/08 13:27:00;;;;;;;15.40;8.15;;;9.50;60.60;;;;;;5060709;28;20102;-90
2023/04/08 13:29:27;;;;;;;12.53;7.23;;;9.60;61.70;;;;;;5056410;28;20533;-90
2023/04/08 13:31:54;;;;;;;16.00;8.77;;;9.80;63.60;;;;;;5072056;28;20070;-95
2023/04/08 13:34:22;;;;;;;14.63;8.73;;;9.90;60.20;;;;;;5064936;28;20044;-95
2023/04/08 13:36:49;;;;;;;16.35;9.57;;;9.90;62.20;;;;;;5040669;28;20041;-95
2023/04/08 13:39:17;;;;;;;15.95;8.63;;;9.90;62.30;;;;;;5055362;28;20109;-93
2023/04/08 13:41:44;;;;;;;16.40;9.40;;;9.90;60.80;;;;;;5038745;28;20045;-89
2023/04/08 13:44:11;;;;;;;18.98;10.07;;;9.70;61.60;;;;;;5070457;28;20044;-90
2023/04/08 13:46:38;;;;;;;17.80;10.43;;;9.50;63.10;;;;;;5058860;28;20040;-89
2023/04/08 13:49:05;;;;;;;19.33;9.90;;;9.40;63.20;;;;;;5058750;28;20051;-89
2023/04/08 13:51:32;;;;;;;21.35;10.55;;;9.30;63.30;;;;;;5074926;28;20048;-89
2023/04/08 13:54:36;;;;;;;18.00;10.10;;;9.20;63.30;;;;;;5058458;28;20071;-90
2023/04/08 13:57:39;;;;;;;17.65;10.07;;;9.10;63.40;;;;;;5033759;28;20052;-92
2023/04/08 14:00:07;;;;;;;21.13;12.23;;;9.00;64.10;;;;;;5034770;28;20069;-90
2023/04/08 14:02:36;;;;;;;19.52;11.10;;;8.90;64.40;;;;;;5034468;28;20128;-89
2023/04/08 14:05:05;;;;;;;21.92;12.20;;;9.00;65.60;;;;;;5034223;28;20049;-89
2023/04/08 14:11:33;;;;;;;22.02;11.13;;;9.00;64.40;;;;;;5033868;28;20101;-91
2023/04/08 14:14:04;;;;;;;19.60;10.75;;;9.10;64.60;;;;;;5034145;28;20041;-90
2023/04/08 14:25:41;;;;;;;19.47;9.97;;;9.80;62.40;;;;;;5076012;28;20060;-92
2023/04/08 14:28:08;;;;;;;22.30;12.00;;;9.90;64.20;;;;;;5074328;28;20139;-86
2023/04/08 14:30:38;;;;;;;19.98;10.82;;;9.90;63.20;;;;;;5058910;28;20044;-88
2023/04/08 14:37:03;;;;;;;20.25;11.45;;;9.80;62.70;;;;;;5075149;28;20052;-92
2023/04/08 14:39:35;;;;;;;23.40;12.57;;;9.60;63.40;;;;;;5062085;28;20108;-95
2023/04/08 14:42:10;;;;;;;24.80;12.02;;;9.50;64.40;;;;;;5063821;28;20114;-95
2023/04/08 14:44:40;;;;;;;20.17;11.68;;;9.70;65.10;;;;;;5082621;28;20040;-94
2023/04/08 14:47:09;;;;;;;23.23;12.75;;;9.60;62.50;;;;;;5062652;28;20102;-94
2023/04/08 14:49:39;;;;;;;19.38;10.98;;;9.50;65.70;;;;;;5060052;28;20066;-93
2023/04/08 14:52:13;;;;;;;23.63;13.57;;;9.70;64.40;;;;;;5061633;28;20535;-95
2023/04/08 14:54:44;;;;;;;22.40;12.35;;;9.50;64.10;;;;;;5060347;28;20041;-90
2023/04/08 14:57:15;;;;;;;23.13;12.82;;;9.50;63.90;;;;;;5059318;28;20080;-95
2023/04/08 14:59:42;;;;;;;21.60;12.45;;;9.40;63.70;;;;;;5057993;28;20076;-92
2023/04/08 15:02:11;;;;;;;21.23;12.35;;;9.10;64.70;;;;;;5061156;28;20066;-92
2023/04/08 15:04:39;;;;;;;24.40;12.60;;;8.90;66.60;;;;;;5056966;28;20048;-92
2023/04/08 15:07:07;;;;;;;24.30;13.07;;;8.90;66.20;;;;;;5056007;28;20083;-92
2023/04/08 15:09:41;;;;;;;24.40;12.75;;;8.90;65.60;;;;;;5056158;28;20513;-92
2023/04/08 15:12:12;;;;;;;25.83;14.30;;;8.80;65.90;;;;;;5056580;28;20060;-92
2023/04/08 15:14:42;;;;;;;27.38;13.38;;;8.80;65.70;;;;;;5073082;28;20076;-92
2023/04/08 15:17:12;;;;;;;21.87;13.00;;;8.70;66.40;;;;;;5055589;28;20044;-90
2023/04/08 15:19:39;;;;;;;27.88;14.80;;;8.60;66.70;;;;;;5056094;28;20535;-90
2023/04/08 15:22:06;;;;;;;27.40;14.52;;;8.50;67.10;;;;;;5055525;28;20044;-90
2023/04/08 15:24:33;;;;;;;24.25;12.98;;;8.40;67.40;;;;;;5072351;28;20075;-91
2023/04/08 15:27:00;;;;;;;27.08;14.43;;;8.30;67.30;;;;;;5056173;28;20154;-90
2023/04/08 15:29:28;;;;;;;26.00;13.67;;;8.20;68.40;;;;;;5055877;28;20071;-91
2023/04/08 15:31:55;;;;;;;30.95;16.88;;;8.20;68.90;;;;;;5055979;28;20045;-91
2023/04/08 15:34:22;;;;;;;24.45;13.93;;;8.20;68.90;;;;;;5055784;28;20037;-92
2023/04/08 15:36:49;;;;;;;28.48;15.60;;;8.20;68.30;;;;;;5054400;28;20048;-91
2023/04/08 15:39:16;;;;;;;30.10;15.93;;;8.10;69.20;;;;;;5072201;28;20090;-91
2023/04/08 15:41:43;;;;;;;28.13;15.70;;;8.10;69.00;;;;;;5055553;28;20033;-90
2023/04/08 15:44:10;;;;;;;27.67;15.20;;;8.00;68.60;;;;;;5055676;28;20058;-90
2023/04/08 15:46:37;;;;;;;30.17;15.68;;;8.00;68.60;;;;;;5055697;28;20124;-92
2023/04/08 15:49:05;;;;;;;28.55;14.82;;;8.00;68.70;;;;;;5056180;28;20424;-91
2023/04/08 15:51:32;;;;;;;33.03;16.92;;;7.90;69.00;;;;;;5072019;28;20044;-91
2023/04/08 15:54:00;;;;;;;27.83;14.63;;;7.80;70.20;;;;;;5074479;28;20072;-91
2023/04/08 15:56:28;;;;;;;31.33;15.82;;;7.70;69.90;;;;;;5059139;28;20040;-91
2023/04/08 15:58:55;;;;;;;31.05;17.23;;;7.70;71.30;;;;;;5059269;28;20128;-91
2023/04/08 16:01:22;;;;;;;30.52;16.13;;;7.60;71.70;;;;;;5075896;28;20091;-91
2023/04/08 16:03:49;;;;;;;30.15;15.63;;;7.50;71.60;;;;;;5075867;28;20044;-90
2023/04/08 16:06:17;;;;;;;37.77;17.77;;;7.50;71.90;;;;;;5075989;28;20501;-93
2023/04/08 16:08:45;;;;;;;38.05;16.63;;;7.40;72.50;;;;;;5060178;28;20060;-94
2023/04/08 16:11:12;;;;;;;30.02;14.38;;;7.40;72.60;;;;;;5059195;28;20517;-92
2023/04/08 16:13:41;;;;;;;29.77;13.48;;;7.40;72.50;;;;;;5076322;28;20037;-92
2023/04/08 16:16:09;;;;;;;32.92;15.88;;;7.40;72.50;;;;;;5057482;28;20098;-91
2023/04/08 16:18:36;;;;;;;39.27;16.03;;;7.40;72.80;;;;;;5075268;28;20044;-92
2023/04/08 16:25:01;;;;;;;32.70;14.30;;;7.40;73.30;;;;;;5075177;28;20086;-91
2023/04/08 16:27:28;;;;;;;31.42;14.38;;;7.30;73.30;;;;;;5076070;28;20112;-92
2023/04/08 16:29:56;;;;;;;30.27;14.32;;;7.20;73.60;;;;;;5059442;28;20484;-92
2023/04/08 16:32:23;;;;;;;32.27;15.27;;;7.20;73.20;;;;;;5059468;28;20089;-92
2023/04/08 16:34:51;;;;;;;32.05;15.18;;;7.10;73.70;;;;;;5059383;28;20045;-92
2023/04/08 16:37:18;;;;;;;30.35;15.75;;;7.00;73.70;;;;;;5054561;28;20045;-90
2023/04/08 16:39:45;;;;;;;32.17;14.88;;;7.00;74.10;;;;;;5055909;28;20046;-91
2023/04/08 16:42:12;;;;;;;26.38;12.07;;;7.00;73.90;;;;;;5056179;28;20124;-92
2023/04/08 16:44:39;;;;;;;30.33;14.37;;;6.90;73.40;;;;;;5052635;28;20132;-92
2023/04/08 16:47:06;;;;;;;29.05;13.43;;;6.90;73.60;;;;;;5057180;28;20044;-92
2023/04/08 16:49:34;;;;;;;30.02;14.18;;;6.80;73.60;;;;;;5055128;28;20075;-91
2023/04/08 16:52:01;;;;;;;31.35;15.52;;;6.80;73.50;;;;;;5075775;28;20040;-94
2023/04/08 16:54:28;;;;;;;31.80;15.20;;;6.70;73.50;;;;;;5058940;28;20048;-93
2023/04/08 16:56:55;;;;;;;26.63;12.83;;;6.80;73.70;;;;;;5059601;28;20044;-94
2023/04/08 16:59:22;;;;;;;32.55;15.85;;;6.80;72.50;;;;;;5058657;28;20045;-91
2023/04/08 17:01:51;;;;;;;35.90;15.90;;;6.70;72.80;;;;;;5059077;28;20037;-93
2023/04/08 17:04:18;;;;;;;33.70;15.43;;;6.70;72.90;;;;;;5059814;28;20449;-93
2023/04/08 17:06:45;;;;;;;39.25;17.83;;;6.60;72.90;;;;;;5059305;28;20501;-93
2023/04/08 17:09:13;;;;;;;32.80;15.73;;;6.60;73.60;;;;;;5058697;28;20063;-94
2023/04/08 17:11:40;;;;;;;32.17;15.15;;;6.50;73.40;;;;;;5058540;28;20082;-94
2023/04/08 17:14:07;;;;;;;35.05;16.25;;;6.50;73.80;;;;;;5058617;28;20040;-93
2023/04/08 17:16:34;;;;;;;37.15;16.42;;;6.50;73.80;;;;;;5058329;28;20399;-93
2023/04/08 17:19:01;;;;;;;33.97;16.60;;;6.50;74.10;;;;;;5054660;28;20567;-92
2023/04/08 17:21:28;;;;;;;37.60;16.67;;;6.50;74.30;;;;;;5054883;28;20052;-91
2023/04/08 17:23:55;;;;;;;36.33;17.52;;;6.40;74.60;;;;;;5057803;28;20041;-91
2023/04/08 17:26:22;;;;;;;36.40;18.05;;;6.40;75.10;;;;;;5057470;28;20387;-91
2023/04/08 17:28:49;;;;;;;45.05;19.38;;;6.30;75.40;;;;;;5057685;28;20045;-90
2023/04/08 17:31:16;;;;;;;44.88;18.73;;;6.30;75.80;;;;;;5055173;28;20040;-90
2023/04/08 17:33:43;;;;;;;44.27;19.70;;;6.20;76.00;;;;;;5055837;28;20064;-91
2023/04/08 17:36:10;;;;;;;42.67;18.52;;;6.20;76.10;;;;;;5075066;28;20044;-92
2023/04/08 17:38:38;;;;;;;37.60;18.85;;;6.20;76.10;;;;;;5074778;28;20390;-92
2023/04/08 17:41:06;;;;;;;38.90;17.40;;;6.10;76.20;;;;;;5058397;28;20044;-91
2023/04/08 17:43:34;;;;;;;34.00;16.45;;;6.10;76.30;;;;;;5057710;28;20037;-91
2023/04/08 17:46:01;;;;;;;42.07;19.10;;;6.20;76.00;;;;;;5056525;28;20567;-91
2023/04/08 17:48:28;;;;;;;40.38;19.00;;;6.20;76.00;;;;;;5057053;28;20095;-91
2023/04/08 17:51:05;;;;;;;38.65;18.92;;;6.10;76.00;;;;;;5056462;28;20090;-90
2023/04/08 17:53:33;;;;;;;39.72;18.80;;;6.10;75.90;;;;;;5054302;28;20139;-92
2023/04/08 17:56:00;;;;;;;41.67;20.27;;;6.20;75.90;;;;;;5072593;28;20052;-92
2023/04/08 17:58:27;;;;;;;42.73;18.60;;;6.20;76.20;;;;;;5057235;28;20045;-92
2023/04/08 18:00:54;;;;;;;42.88;19.20;;;6.20;76.00;;;;;;5057298;28;20032;-92
2023/04/08 18:03:21;;;;;;;39.10;16.15;;;6.10;76.30;;;;;;5056698;28;20033;-92
2023/04/08 18:05:49;;;;;;;35.67;17.27;;;6.20;76.10;;;;;;5057021;28;20037;-92
2023/04/08 18:08:16;;;;;;;41.03;19.15;;;6.20;76.00;;;;;;5073352;28;20520;-92
2023/04/08 18:10:43;;;;;;;41.97;20.10;;;6.20;76.10;;;;;;5057582;28;20139;-91
2023/04/08 18:13:12;;;;;;;44.30;21.20;;;6.20;76.00;;;;;;5060428;28;20524;-91
2023/04/08 18:15:42;;;;;;;46.92;20.48;;;6.20;76.00;;;;;;5058753;28;20123;-90
2023/04/08 18:18:09;;;;;;;44.17;20.38;;;6.30;75.90;;;;;;5057894;28;20044;-90
2023/04/08 18:20:36;;;;;;;41.38;18.70;;;6.30;75.90;;;;;;5057291;28;20047;-90
2023/04/08 18:23:03;;;;;;;46.57;20.13;;;6.30;75.90;;;;;;5057386;28;20043;-92
2023/04/08 18:25:31;;;;;;;43.97;21.40;;;6.40;76.00;;;;;;5057378;28;20135;-92
2023/04/08 18:27:58;;;;;;;48.83;20.75;;;6.40;76.10;;;;;;5056977;28;20048;-92
2023/04/08 18:30:25;;;;;;;44.65;19.95;;;6.40;76.10;;;;;;5073820;28;20048;-92
2023/04/08 18:32:52;;;;;;;45.42;20.98;;;6.30;76.30;;;;;;5056986;28;20139;-92
2023/04/08 18:35:20;;;;;;;45.83;19.53;;;6.40;76.50;;;;;;5056988;28;20079;-93
2023/04/08 18:37:47;;;;;;;44.55;19.35;;;6.40;76.60;;;;;;5056885;28;20379;-92
2023/04/08 18:40:14;;;;;;;44.42;20.83;;;6.40;76.30;;;;;;5056656;28;20048;-93
2023/04/08 18:42:41;;;;;;;43.03;19.45;;;6.50;76.30;;;;;;5057263;28;20502;-94
2023/04/08 18:45:08;;;;;;;45.85;21.08;;;6.40;76.40;;;;;;5056767;28;20045;-94
2023/04/08 18:47:36;;;;;;;46.37;20.47;;;6.50;76.20;;;;;;5056654;28;20052;-94
2023/04/08 18:50:03;;;;;;;44.05;20.00;;;6.50;76.00;;;;;;5056543;28;20445;-94
2023/04/08 18:52:31;;;;;;;48.15;21.70;;;6.50;76.10;;;;;;5056485;28;20044;-94
2023/04/08 18:54:58;;;;;;;43.50;20.17;;;6.50;76.30;;;;;;5056794;28;20490;-95
2023/04/08 18:57:26;;;;;;;43.45;19.58;;;6.50;76.10;;;;;;5056709;28;20135;-93
2023/04/08 18:59:53;;;;;;;50.53;22.10;;;6.50;76.10;;;;;;5056251;28;20076;-94
2023/04/08 19:02:21;;;;;;;56.03;26.60;;;6.40;76.40;;;;;;5056638;28;20433;-93
2023/04/08 19:04:48;;;;;;;53.80;24.00;;;6.40;76.70;;;;;;5056571;28;20421;-94
2023/04/08 19:07:16;;;;;;;44.40;20.15;;;6.40;76.60;;;;;;5056438;28;20082;-94
2023/04/08 19:09:43;;;;;;;48.15;21.98;;;6.40;76.50;;;;;;5056499;28;20533;-94
2023/04/08 19:12:10;;;;;;;54.90;24.73;;;6.40;76.50;;;;;;5056088;28;20053;-94
2023/04/08 19:14:38;;;;;;;53.17;23.38;;;6.40;76.70;;;;;;5056438;28;20045;-94
2023/04/08 19:17:05;;;;;;;54.30;23.02;;;6.40;76.70;;;;;;5056829;28;20044;-94
2023/04/08 19:19:33;;;;;;;52.85;23.13;;;6.40;77.00;;;;;;5056391;28;20078;-94
2023/04/08 19:22:04;;;;;;;51.90;23.25;;;6.30;77.00;;;;;;5056645;28;20036;-93
2023/04/08 19:24:32;;;;;;;53.13;22.60;;;6.20;77.20;;;;;;5056593;28;20052;-94
2023/04/08 19:26:59;;;;;;;57.33;24.63;;;6.20;77.50;;;;;;5056154;28;20041;-94
2023/04/08 19:29:29;;;;;;;56.22;24.35;;;6.10;77.80;;;;;;5059480;28;20131;-94
2023/04/08 19:31:58;;;;;;;58.38;25.40;;;6.10;77.90;;;;;;5060493;28;20101;-93
2023/04/08 19:34:25;;;;;;;53.88;25.48;;;6.00;78.40;;;;;;5060181;28;20048;-93
2023/04/08 19:36:55;;;;;;;58.37;27.13;;;5.90;78.50;;;;;;5060307;28;20044;-94
2023/04/08 19:39:22;;;;;;;59.33;27.25;;;5.90;78.70;;;;;;5060130;28;20060;-94
2023/04/08 19:41:55;;;;;;;63.50;27.33;;;5.90;78.90;;;;;;5061431;28;20040;-94
2023/04/08 19:44:22;;;;;;;62.72;25.58;;;5.90;79.10;;;;;;5060659;28;20067;-93
2023/04/08 19:46:49;;;;;;;61.70;26.17;;;5.90;79.10;;;;;;5061123;28;20527;-93
2023/04/08 19:49:16;;;;;;;63.47;27.27;;;5.80;79.40;;;;;;5060975;28;20059;-93
2023/04/08 19:51:44;;;;;;;60.08;25.98;;;5.80;79.40;;;;;;5061466;28;20124;-94
2023/04/08 19:54:11;;;;;;;57.00;25.20;;;5.80;79.60;;;;;;5061677;28;20083;-94
2023/04/08 19:56:38;;;;;;;59.88;26.27;;;5.80;79.60;;;;;;5060715;28;20049;-93
2023/04/08 19:59:05;;;;;;;62.03;26.70;;;5.80;79.50;;;;;;5060027;28;20463;-94
2023/04/08 20:01:34;;;;;;;57.90;25.73;;;5.80;79.70;;;;;;5060115;28;20513;-94
2023/04/08 20:04:02;;;;;;;60.03;26.08;;;5.80;79.60;;;;;;5060078;28;20041;-94
2023/04/08 20:06:29;;;;;;;62.67;28.27;;;5.80;79.50;;;;;;5059668;28;20045;-94
2023/04/08 20:09:00;;;;;;;61.88;27.92;;;5.80;79.40;;;;;;5059497;28;20052;-94
2023/04/08 20:11:28;;;;;;;57.95;27.38;;;5.80;79.30;;;;;;5059253;28;20409;-93
2023/04/08 20:13:55;;;;;;;55.20;26.17;;;5.80;79.30;;;;;;5059533;28;20098;-93
2023/04/08 20:16:22;;;;;;;62.65;27.33;;;5.90;79.40;;;;;;5059612;28;20052;-93
2023/04/08 20:18:49;;;;;;;59.20;26.60;;;5.80;79.30;;;;;;5059557;28;20036;-93
2023/04/08 20:21:17;;;;;;;57.13;26.40;;;5.90;79.30;;;;;;5059695;28;20032;-93
2023/04/08 20:23:44;;;;;;;62.03;26.75;;;5.80;79.40;;;;;;5059266;28;20091;-92
2023/04/08 20:26:12;;;;;;;55.67;25.93;;;5.80;79.50;;;;;;5059156;28;20153;-94
2023/04/08 20:28:40;;;;;;;64.75;28.33;;;5.70;79.80;;;;;;5059162;28;20048;-94
2023/04/08 20:31:08;;;;;;;63.25;26.67;;;5.70;79.90;;;;;;5059117;28;20056;-93
2023/04/08 20:33:37;;;;;;;59.15;26.33;;;5.70;79.90;;;;;;5059041;28;20498;-93
2023/04/08 20:36:04;;;;;;;58.92;26.55;;;5.70;80.00;;;;;;5059291;28;20051;-92
2023/04/08 20:38:34;;;;;;;65.43;26.50;;;5.70;79.80;;;;;;5058339;28;20044;-93
2023/04/08 20:41:01;;;;;;;59.05;27.02;;;5.80;79.80;;;;;;5075421;28;20414;-95
2023/04/08 20:43:30;;;;;;;65.20;28.05;;;5.70;79.80;;;;;;5058821;28;20045;-94
2023/04/08 20:45:57;;;;;;;64.78;27.40;;;5.70;80.00;;;;;;5058755;28;20044;-94
2023/04/08 20:48:24;;;;;;;69.55;29.88;;;5.70;80.20;;;;;;5058608;28;20397;-93
2023/04/08 20:50:51;;;;;;;70.03;30.37;;;5.70;80.30;;;;;;5067558;28;20094;-95
2023/04/08 20:53:18;;;;;;;61.83;28.27;;;5.70;80.50;;;;;;5075113;28;20128;-93
2023/04/08 20:55:45;;;;;;;63.35;26.83;;;5.70;80.30;;;;;;5058540;28;20119;-93
2023/04/08 20:58:12;;;;;;;60.33;26.33;;;5.70;80.20;;;;;;5058391;28;20052;-93
2023/04/08 21:00:39;;;;;;;59.45;25.85;;;5.70;80.10;;;;;;5058546;28;20114;-93
2023/04/08 21:03:06;;;;;;;64.80;28.17;;;5.70;79.90;;;;;;5058298;28;20048;-94
2023/04/08 21:05:39;;;;;;;62.13;28.67;;;5.70;80.00;;;;;;5059166;28;20063;-94
2023/04/08 21:08:06;;;;;;;60.97;28.08;;;5.70;79.90;;;;;;5058760;28;20085;-94
2023/04/08 21:10:33;;;;;;;69.10;28.33;;;5.70;80.00;;;;;;5058447;28;20206;-93
2023/04/08 21:13:00;;;;;;;64.00;28.75;;;5.70;79.90;;;;;;5058259;28;20048;-95
2023/04/08 21:15:28;;;;;;;68.10;29.83;;;5.70;80.00;;;;;;5058458;28;20524;-94
2023/04/08 21:17:55;;;;;;;62.63;29.35;;;5.70;79.90;;;;;;5059225;28;20127;-93
2023/04/08 21:20:22;;;;;;;66.75;31.15;;;5.70;80.10;;;;;;5059012;28;20409;-93
2023/04/08 21:22:49;;;;;;;67.18;28.75;;;5.70;80.10;;;;;;5061834;28;20406;-93
2023/04/08 21:25:16;;;;;;;69.68;29.55;;;5.70;80.00;;;;;;5058325;28;20490;-95
2023/04/08 21:27:44;;;;;;;74.40;31.17;;;5.60;80.00;;;;;;5058209;28;20041;-94
2023/04/08 21:30:11;;;;;;;71.05;31.60;;;5.70;80.00;;;;;;5058949;28;20067;-94
2023/04/08 21:32:38;;;;;;;74.25;30.63;;;5.70;80.20;;;;;;5058374;28;20074;-94
2023/04/08 21:35:05;;;;;;;66.55;29.23;;;5.70;80.00;;;;;;5057880;28;20090;-94
2023/04/08 21:37:33;;;;;;;62.25;28.63;;;5.70;79.80;;;;;;5057946;28;20127;-94
2023/04/08 21:40:00;;;;;;;72.63;31.10;;;5.80;79.70;;;;;;5057525;28;20044;-94
2023/04/08 21:42:27;;;;;;;65.05;28.10;;;5.80;79.60;;;;;;5057697;28;20090;-94
2023/04/08 21:44:55;;;;;;;66.70;29.98;;;5.90;79.40;;;;;;5057733;28;20040;-94
2023/04/08 21:47:22;;;;;;;71.53;30.45;;;5.90;79.20;;;;;;5057757;28;20044;-94
2023/04/08 21:49:49;;;;;;;73.30;30.00;;;6.00;79.10;;;;;;5057740;28;20509;-94
2023/04/08 21:52:17;;;;;;;75.23;29.80;;;6.00;78.90;;;;;;5061129;28;20052;-94
2023/04/08 21:54:48;;;;;;;61.72;27.23;;;6.00;78.90;;;;;;5057658;28;20044;-94
2023/04/08 21:57:15;;;;;;;66.63;28.52;;;6.00;78.90;;;;;;5074174;28;20045;-94
2023/04/08 21:59:42;;;;;;;68.60;28.48;;;6.00;78.90;;;;;;5057215;28;20127;-93
2023/04/08 22:02:09;;;;;;;66.25;28.67;;;6.00;79.00;;;;;;5057229;28;20055;-93
2023/04/08 22:04:37;;;;;;;62.07;26.83;;;6.00;78.90;;;;;;5057495;28;20036;-93
2023/04/08 22:07:05;;;;;;;69.38;28.05;;;6.00;78.70;;;;;;5057444;28;20066;-93
2023/04/08 22:09:32;;;;;;;65.22;29.45;;;6.00;78.50;;;;;;5057272;28;20072;-93
2023/04/08 22:12:00;;;;;;;70.85;30.25;;;6.00;78.50;;;;;;5056712;28;20498;-93
2023/04/08 22:14:28;;;;;;;75.70;31.70;;;6.00;78.50;;;;;;5056956;28;20101;-93
2023/04/08 22:16:55;;;;;;;67.70;29.77;;;6.00;78.50;;;;;;5056970;28;20048;-93
2023/04/08 22:19:22;;;;;;;77.53;33.45;;;6.00;78.60;;;;;;5073639;28;20100;-93
2023/04/08 22:21:51;;;;;;;71.20;31.90;;;6.00;78.80;;;;;;5057222;28;20122;-93
2023/04/08 22:24:19;;;;;;;84.45;33.13;;;6.00;78.80;;;;;;5056601;28;20048;-93
2023/04/08 22:26:46;;;;;;;68.78;29.70;;;5.90;78.90;;;;;;5057096;28;20524;-93
2023/04/08 22:29:14;;;;;;;70.57;31.37;;;5.90;79.00;;;;;;5056646;28;20106;-93
2023/04/08 22:31:41;;;;;;;71.18;31.25;;;5.90;79.00;;;;;;5056961;28;20040;-93
2023/04/08 22:34:08;;;;;;;68.18;31.33;;;5.90;78.90;;;;;;5056945;28;20082;-93
2023/04/08 22:36:35;;;;;;;65.45;30.30;;;5.90;78.90;;;;;;5056579;28;20074;-93
2023/04/08 22:39:02;;;;;;;76.13;31.95;;;5.90;78.90;;;;;;5056764;28;20045;-92
2023/04/08 22:41:29;;;;;;;72.80;29.37;;;5.90;78.90;;;;;;5056600;28;20041;-93
2023/04/08 22:43:57;;;;;;;65.38;29.10;;;5.90;79.00;;;;;;5056404;28;20040;-93
2023/04/08 22:46:26;;;;;;;69.50;27.40;;;5.90;79.10;;;;;;5056440;28;20560;-93
2023/04/08 22:48:54;;;;;;;67.95;29.25;;;5.80;79.20;;;;;;5056186;28;20036;-93
2023/04/08 22:51:21;;;;;;;70.95;30.63;;;5.80;79.40;;;;;;5056509;28;20094;-93
2023/04/08 22:53:49;;;;;;;64.13;29.50;;;5.70;79.60;;;;;;5056411;28;20052;-93
2023/04/08 22:56:16;;;;;;;70.70;30.02;;;5.60;79.80;;;;;;5056220;28;20071;-93
2023/04/08 22:58:43;;;;;;;62.83;28.00;;;5.70;79.90;;;;;;5056274;28;20486;-93
2023/04/08 23:01:15;;;;;;;65.47;28.45;;;5.60;79.70;;;;;;5057648;28;20060;-93
2023/04/08 23:03:43;;;;;;;66.80;30.25;;;5.60;79.70;;;;;;5056293;28;20036;-93
2023/04/08 23:06:10;;;;;;;64.07;28.00;;;5.60;79.70;;;;;;5056076;28;20106;-94
2023/04/08 23:08:40;;;;;;;67.53;29.23;;;5.60;79.60;;;;;;5056055;28;20040;-93
2023/04/08 23:11:07;;;;;;;65.60;28.73;;;5.60;79.60;;;;;;5056061;28;20524;-93
2023/04/08 23:13:34;;;;;;;78.72;32.13;;;5.60;79.70;;;;;;5055766;28;20464;-93
2023/04/08 23:16:01;;;;;;;63.35;28.58;;;5.60;79.60;;;;;;5055922;28;20048;-94
2023/04/08 23:18:31;;;;;;;67.63;28.20;;;5.60;79.70;;;;;;5056088;28;20124;-94
2023/04/08 23:20:58;;;;;;;64.30;28.42;;;5.50;79.80;;;;;;5055851;28;20068;-92
2023/04/08 23:23:25;;;;;;;68.03;29.73;;;5.50;79.60;;;;;;5055753;28;20052;-91
2023/04/08 23:25:52;;;;;;;63.97;28.23;;;5.50;79.60;;;;;;5072396;28;20086;-92
2023/04/08 23:28:22;;;;;;;60.33;27.73;;;5.50;79.60;;;;;;5056175;28;20529;-92
2023/04/08 23:30:49;;;;;;;58.20;26.87;;;5.50;79.20;;;;;;5055906;28;20486;-92
2023/04/08 23:33:16;;;;;;;55.92;26.80;;;5.50;79.30;;;;;;5055713;28;20087;-92
2023/04/08 23:35:43;;;;;;;59.47;27.40;;;5.50;79.20;;;;;;5056227;28;20063;-92
2023/04/08 23:38:10;;;;;;;57.65;26.90;;;5.40;79.00;;;;;;5055818;28;20040;-93
2023/04/08 23:40:37;;;;;;;53.40;26.40;;;5.40;79.20;;;;;;5055813;28;20044;-92
2023/04/08 23:43:04;;;;;;;60.90;28.63;;;5.40;79.30;;;;;;5056136;28;20045;-92
2023/04/08 23:45:31;;;;;;;49.95;25.67;;;5.40;79.10;;;;;;5055991;28;20056;-92
2023/04/08 23:47:58;;;;;;;59.97;27.33;;;5.40;79.10;;;;;;5055551;28;20123;-92
2023/04/08 23:50:25;;;;;;;57.08;26.83;;;5.40;79.00;;;;;;5055759;28;20071;-92
2023/04/08 23:52:52;;;;;;;56.10;26.63;;;5.40;79.20;;;;;;5055779;28;20044;-92
2023/04/08 23:55:19;;;;;;;55.97;26.97;;;5.40;79.00;;;;;;5055878;28;20060;-91
2023/04/08 23:57:49;;;;;;;57.53;26.35;;;5.40;79.00;;;;;;5055533;28;20040;-92
